sensor_id;sensor_type;location;lat;lon;timestamp;P1;durP1;ratioP1;P2;durP2;ratioP2
42518;SDS011;28147;47.520;18.920;2023-05-07T00:00:09;3.42;;;1.92;;
42518;SDS011;28147;47.520;18.920;2023-05-07T00:02:36;3.40;;;1.80;;
42518;SDS011;28147;47.520;18.920;2023-05-07T00:05:02;2.88;;;1.70;;
42518;SDS011;28147;47.520;18.920;2023-05-07T00:07:28;2.88;;;1.75;;
42518;SDS011;28147;47.520;18.920;2023-05-07T00:09:53;3.67;;;1.90;;
42518;SDS011;28147;47.520;18.920;2023-05-07T00:12:19;3.40;;;2.08;;
42518;SDS011;28147;47.520;18.920;2023-05-07T00:14:45;2.45;;;1.60;;
42518;SDS011;28147;47.520;18.920;2023-05-07T00:17:10;4.38;;;2.15;;
42518;SDS011;28147;47.520;18.920;2023-05-07T00:19:36;3.22;;;1.75;;
42518;SDS011;28147;47.520;18.920;2023-05-07T00:22:01;3.08;;;1.58;;
42518;SDS011;28147;47.520;18.920;2023-05-07T00:24:27;4.53;;;1.98;;
42518;SDS011;28147;47.520;18.920;2023-05-07T00:26:52;2.75;;;1.75;;
42518;SDS011;28147;47.520;18.920;2023-05-07T00:29:18;3.00;;;1.80;;
42518;SDS011;28147;47.520;18.920;2023-05-07T00:31:43;4.07;;;2.15;;
42518;SDS011;28147;47.520;18.920;2023-05-07T00:34:09;3.00;;;2.03;;
42518;SDS011;28147;47.520;18.920;2023-05-07T00:36:34;3.08;;;1.90;;
42518;SDS011;28147;47.520;18.920;2023-05-07T00:39:00;3.03;;;1.67;;
42518;SDS011;28147;47.520;18.920;2023-05-07T00:41:28;4.47;;;1.67;;
42518;SDS011;28147;47.520;18.920;2023-05-07T00:43:53;2.60;;;1.73;;
42518;SDS011;28147;47.520;18.920;2023-05-07T00:46:20;3.25;;;1.60;;
42518;SDS011;28147;47.520;18.920;2023-05-07T00:48:46;3.08;;;1.85;;
42518;SDS011;28147;47.520;18.920;2023-05-07T00:51:12;2.97;;;1.75;;
42518;SDS011;28147;47.520;18.920;2023-05-07T00:53:38;3.50;;;1.60;;
42518;SDS011;28147;47.520;18.920;2023-05-07T00:56:04;4.82;;;1.45;;
42518;SDS011;28147;47.520;18.920;2023-05-07T00:58:31;2.95;;;1.83;;
42518;SDS011;28147;47.520;18.920;2023-05-07T01:00:58;3.00;;;1.50;;
42518;SDS011;28147;47.520;18.920;2023-05-07T01:03:24;2.50;;;1.65;;
42518;SDS011;28147;47.520;18.920;2023-05-07T01:05:49;2.53;;;1.75;;
42518;SDS011;28147;47.520;18.920;2023-05-07T01:08:16;2.53;;;1.48;;
42518;SDS011;28147;47.520;18.920;2023-05-07T01:10:43;3.92;;;1.60;;
42518;SDS011;28147;47.520;18.920;2023-05-07T01:13:10;2.80;;;1.70;;
42518;SDS011;28147;47.520;18.920;2023-05-07T01:15:37;3.55;;;1.90;;
42518;SDS011;28147;47.520;18.920;2023-05-07T01:18:03;3.25;;;1.95;;
42518;SDS011;28147;47.520;18.920;2023-05-07T01:20:29;3.47;;;1.95;;
42518;SDS011;28147;47.520;18.920;2023-05-07T01:22:55;6.30;;;1.75;;
42518;SDS011;28147;47.520;18.920;2023-05-07T01:25:22;2.80;;;1.48;;
42518;SDS011;28147;47.520;18.920;2023-05-07T01:27:48;2.35;;;1.50;;
42518;SDS011;28147;47.520;18.920;2023-05-07T01:30:13;4.85;;;2.00;;
42518;SDS011;28147;47.520;18.920;2023-05-07T01:35:13;2.53;;;1.40;;
42518;SDS011;28147;47.520;18.920;2023-05-07T01:37:43;2.95;;;1.50;;
42518;SDS011;28147;47.520;18.920;2023-05-07T01:40:10;3.28;;;1.48;;
42518;SDS011;28147;47.520;18.920;2023-05-07T01:42:36;3.03;;;1.67;;
42518;SDS011;28147;47.520;18.920;2023-05-07T01:45:01;3.00;;;1.83;;
42518;SDS011;28147;47.520;18.920;2023-05-07T01:47:27;4.15;;;1.75;;
42518;SDS011;28147;47.520;18.920;2023-05-07T01:49:54;4.72;;;1.98;;
42518;SDS011;28147;47.520;18.920;2023-05-07T01:52:20;2.85;;;1.40;;
42518;SDS011;28147;47.520;18.920;2023-05-07T01:54:45;2.88;;;1.42;;
42518;SDS011;28147;47.520;18.920;2023-05-07T01:57:11;2.30;;;1.40;;
42518;SDS011;28147;47.520;18.920;2023-05-07T01:59:36;3.05;;;1.55;;
42518;SDS011;28147;47.520;18.920;2023-05-07T02:02:01;2.58;;;1.50;;
42518;SDS011;28147;47.520;18.920;2023-05-07T02:04:27;2.72;;;1.63;;
42518;SDS011;28147;47.520;18.920;2023-05-07T02:06:52;2.17;;;1.27;;
42518;SDS011;28147;47.520;18.920;2023-05-07T02:09:18;2.95;;;1.50;;
42518;SDS011;28147;47.520;18.920;2023-05-07T02:11:44;2.72;;;1.63;;
42518;SDS011;28147;47.520;18.920;2023-05-07T02:14:09;3.95;;;1.98;;
42518;SDS011;28147;47.520;18.920;2023-05-07T02:16:35;3.67;;;1.88;;
42518;SDS011;28147;47.520;18.920;2023-05-07T02:19:00;2.53;;;1.60;;
42518;SDS011;28147;47.520;18.920;2023-05-07T02:21:26;2.47;;;1.70;;
42518;SDS011;28147;47.520;18.920;2023-05-07T02:23:51;4.40;;;2.05;;
42518;SDS011;28147;47.520;18.920;2023-05-07T02:26:16;3.30;;;1.75;;
42518;SDS011;28147;47.520;18.920;2023-05-07T02:28:42;3.17;;;1.67;;
42518;SDS011;28147;47.520;18.920;2023-05-07T02:31:07;1.83;;;1.30;;
42518;SDS011;28147;47.520;18.920;2023-05-07T02:33:34;4.95;;;1.50;;
42518;SDS011;28147;47.520;18.920;2023-05-07T02:36:05;2.95;;;1.90;;
42518;SDS011;28147;47.520;18.920;2023-05-07T02:38:32;2.80;;;1.60;;
42518;SDS011;28147;47.520;18.920;2023-05-07T02:40:57;2.15;;;1.42;;
42518;SDS011;28147;47.520;18.920;2023-05-07T02:43:23;3.70;;;1.60;;
42518;SDS011;28147;47.520;18.920;2023-05-07T02:45:48;2.67;;;1.50;;
42518;SDS011;28147;47.520;18.920;2023-05-07T02:48:13;2.53;;;1.55;;
42518;SDS011;28147;47.520;18.920;2023-05-07T02:50:39;2.28;;;1.40;;
42518;SDS011;28147;47.520;18.920;2023-05-07T02:53:04;2.40;;;1.50;;
42518;SDS011;28147;47.520;18.920;2023-05-07T02:55:30;5.55;;;1.50;;
42518;SDS011;28147;47.520;18.920;2023-05-07T02:57:56;2.47;;;1.58;;
42518;SDS011;28147;47.520;18.920;2023-05-07T03:00:21;2.13;;;1.70;;
42518;SDS011;28147;47.520;18.920;2023-05-07T03:02:47;2.60;;;1.80;;
42518;SDS011;28147;47.520;18.920;2023-05-07T03:05:12;3.03;;;1.55;;
42518;SDS011;28147;47.520;18.920;2023-05-07T03:07:39;3.22;;;1.55;;
42518;SDS011;28147;47.520;18.920;2023-05-07T03:10:06;2.63;;;1.65;;
42518;SDS011;28147;47.520;18.920;2023-05-07T03:12:31;2.10;;;1.30;;
42518;SDS011;28147;47.520;18.920;2023-05-07T03:14:57;2.90;;;1.90;;
42518;SDS011;28147;47.520;18.920;2023-05-07T03:17:22;2.30;;;1.30;;
42518;SDS011;28147;47.520;18.920;2023-05-07T03:19:47;2.92;;;1.52;;
42518;SDS011;28147;47.520;18.920;2023-05-07T03:22:13;3.60;;;1.17;;
42518;SDS011;28147;47.520;18.920;2023-05-07T03:24:39;2.50;;;1.50;;
42518;SDS011;28147;47.520;18.920;2023-05-07T03:27:04;3.55;;;1.75;;
42518;SDS011;28147;47.520;18.920;2023-05-07T03:29:30;3.67;;;1.70;;
42518;SDS011;28147;47.520;18.920;2023-05-07T03:31:55;3.28;;;1.63;;
42518;SDS011;28147;47.520;18.920;2023-05-07T03:34:21;3.70;;;1.60;;
42518;SDS011;28147;47.520;18.920;2023-05-07T03:36:50;3.00;;;1.45;;
42518;SDS011;28147;47.520;18.920;2023-05-07T03:39:15;2.22;;;1.30;;
42518;SDS011;28147;47.520;18.920;2023-05-07T03:41:41;2.47;;;1.63;;
42518;SDS011;28147;47.520;18.920;2023-05-07T03:44:06;2.97;;;1.60;;
42518;SDS011;28147;47.520;18.920;2023-05-07T03:46:32;2.50;;;1.60;;
42518;SDS011;28147;47.520;18.920;2023-05-07T03:49:00;3.20;;;1.45;;
42518;SDS011;28147;47.520;18.920;2023-05-07T03:51:26;2.85;;;1.65;;
42518;SDS011;28147;47.520;18.920;2023-05-07T03:53:51;2.42;;;1.50;;
42518;SDS011;28147;47.520;18.920;2023-05-07T03:56:22;2.40;;;1.40;;
42518;SDS011;28147;47.520;18.920;2023-05-07T03:58:48;2.78;;;1.33;;
42518;SDS011;28147;47.520;18.920;2023-05-07T04:01:13;2.28;;;1.38;;
42518;SDS011;28147;47.520;18.920;2023-05-07T04:03:38;4.22;;;1.73;;
42518;SDS011;28147;47.520;18.920;2023-05-07T04:06:04;2.28;;;1.48;;
42518;SDS011;28147;47.520;18.920;2023-05-07T04:08:29;2.50;;;1.52;;
42518;SDS011;28147;47.520;18.920;2023-05-07T04:10:56;2.00;;;1.23;;
42518;SDS011;28147;47.520;18.920;2023-05-07T04:13:21;2.35;;;1.50;;
42518;SDS011;28147;47.520;18.920;2023-05-07T04:15:47;2.17;;;1.30;;
42518;SDS011;28147;47.520;18.920;2023-05-07T04:18:14;2.58;;;1.48;;
42518;SDS011;28147;47.520;18.920;2023-05-07T04:20:39;4.28;;;1.48;;
42518;SDS011;28147;47.520;18.920;2023-05-07T04:23:05;2.20;;;1.42;;
42518;SDS011;28147;47.520;18.920;2023-05-07T04:25:30;1.85;;;1.55;;
42518;SDS011;28147;47.520;18.920;2023-05-07T04:27:56;1.90;;;1.23;;
42518;SDS011;28147;47.520;18.920;2023-05-07T04:30:21;2.10;;;1.20;;
42518;SDS011;28147;47.520;18.920;2023-05-07T04:32:47;1.63;;;1.02;;
42518;SDS011;28147;47.520;18.920;2023-05-07T04:35:13;1.65;;;1.17;;
42518;SDS011;28147;47.520;18.920;2023-05-07T04:37:38;1.90;;;1.17;;
42518;SDS011;28147;47.520;18.920;2023-05-07T04:40:04;2.03;;;1.33;;
42518;SDS011;28147;47.520;18.920;2023-05-07T04:42:30;2.25;;;1.33;;
42518;SDS011;28147;47.520;18.920;2023-05-07T04:44:56;1.77;;;1.15;;
42518;SDS011;28147;47.520;18.920;2023-05-07T04:47:21;2.25;;;1.20;;
42518;SDS011;28147;47.520;18.920;2023-05-07T04:49:46;1.58;;;1.02;;
42518;SDS011;28147;47.520;18.920;2023-05-07T04:52:12;2.25;;;1.00;;
42518;SDS011;28147;47.520;18.920;2023-05-07T04:54:37;3.10;;;1.10;;
42518;SDS011;28147;47.520;18.920;2023-05-07T04:57:03;3.67;;;1.48;;
42518;SDS011;28147;47.520;18.920;2023-05-07T04:59:29;1.98;;;1.10;;
42518;SDS011;28147;47.520;18.920;2023-05-07T05:01:55;2.25;;;1.30;;
42518;SDS011;28147;47.520;18.920;2023-05-07T05:04:20;1.45;;;1.02;;
42518;SDS011;28147;47.520;18.920;2023-05-07T05:06:46;2.35;;;1.50;;
42518;SDS011;28147;47.520;18.920;2023-05-07T05:09:11;1.70;;;1.00;;
42518;SDS011;28147;47.520;18.920;2023-05-07T05:11:36;2.40;;;1.65;;
42518;SDS011;28147;47.520;18.920;2023-05-07T05:14:02;2.20;;;1.35;;
42518;SDS011;28147;47.520;18.920;2023-05-07T05:16:27;2.08;;;1.55;;
42518;SDS011;28147;47.520;18.920;2023-05-07T05:18:53;2.40;;;1.52;;
42518;SDS011;28147;47.520;18.920;2023-05-07T05:21:19;2.25;;;1.38;;
42518;SDS011;28147;47.520;18.920;2023-05-07T05:23:45;2.15;;;1.45;;
42518;SDS011;28147;47.520;18.920;2023-05-07T05:26:11;2.28;;;1.40;;
42518;SDS011;28147;47.520;18.920;2023-05-07T05:28:36;2.03;;;1.20;;
42518;SDS011;28147;47.520;18.920;2023-05-07T05:31:01;1.85;;;1.13;;
42518;SDS011;28147;47.520;18.920;2023-05-07T05:33:27;1.70;;;1.10;;
42518;SDS011;28147;47.520;18.920;2023-05-07T05:35:55;2.65;;;1.27;;
42518;SDS011;28147;47.520;18.920;2023-05-07T05:38:21;2.47;;;1.15;;
42518;SDS011;28147;47.520;18.920;2023-05-07T05:40:46;2.05;;;1.17;;
42518;SDS011;28147;47.520;18.920;2023-05-07T05:43:13;2.20;;;1.30;;
42518;SDS011;28147;47.520;18.920;2023-05-07T05:45:39;2.15;;;1.20;;
42518;SDS011;28147;47.520;18.920;2023-05-07T05:48:05;1.83;;;1.00;;
42518;SDS011;28147;47.520;18.920;2023-05-07T05:50:30;2.08;;;1.17;;
42518;SDS011;28147;47.520;18.920;2023-05-07T05:52:56;1.52;;;0.98;;
42518;SDS011;28147;47.520;18.920;2023-05-07T05:55:22;2.45;;;1.17;;
42518;SDS011;28147;47.520;18.920;2023-05-07T05:57:48;1.80;;;1.20;;
42518;SDS011;28147;47.520;18.920;2023-05-07T06:00:13;2.17;;;0.85;;
42518;SDS011;28147;47.520;18.920;2023-05-07T06:02:39;1.60;;;1.00;;
42518;SDS011;28147;47.520;18.920;2023-05-07T06:05:04;1.98;;;1.17;;
42518;SDS011;28147;47.520;18.920;2023-05-07T06:07:30;1.65;;;1.02;;
42518;SDS011;28147;47.520;18.920;2023-05-07T06:09:56;1.52;;;1.02;;
42518;SDS011;28147;47.520;18.920;2023-05-07T06:12:21;1.30;;;0.90;;
42518;SDS011;28147;47.520;18.920;2023-05-07T06:14:46;1.88;;;0.90;;
42518;SDS011;28147;47.520;18.920;2023-05-07T06:17:12;1.65;;;1.00;;
42518;SDS011;28147;47.520;18.920;2023-05-07T06:19:37;1.77;;;0.80;;
42518;SDS011;28147;47.520;18.920;2023-05-07T06:22:03;1.50;;;0.95;;
42518;SDS011;28147;47.520;18.920;2023-05-07T06:24:28;1.85;;;1.00;;
42518;SDS011;28147;47.520;18.920;2023-05-07T06:26:54;2.42;;;1.02;;
42518;SDS011;28147;47.520;18.920;2023-05-07T06:29:20;2.05;;;1.10;;
42518;SDS011;28147;47.520;18.920;2023-05-07T06:31:45;1.65;;;0.95;;
42518;SDS011;28147;47.520;18.920;2023-05-07T06:34:11;1.85;;;0.98;;
42518;SDS011;28147;47.520;18.920;2023-05-07T06:36:39;2.25;;;1.10;;
42518;SDS011;28147;47.520;18.920;2023-05-07T06:39:05;3.47;;;1.20;;
42518;SDS011;28147;47.520;18.920;2023-05-07T06:41:31;1.38;;;0.80;;
42518;SDS011;28147;47.520;18.920;2023-05-07T06:43:56;1.45;;;0.90;;
42518;SDS011;28147;47.520;18.920;2023-05-07T06:46:21;1.60;;;1.35;;
42518;SDS011;28147;47.520;18.920;2023-05-07T06:48:47;2.13;;;1.20;;
42518;SDS011;28147;47.520;18.920;2023-05-07T06:51:12;2.88;;;0.93;;
42518;SDS011;28147;47.520;18.920;2023-05-07T06:53:38;1.92;;;1.13;;
42518;SDS011;28147;47.520;18.920;2023-05-07T06:56:03;1.35;;;1.00;;
42518;SDS011;28147;47.520;18.920;2023-05-07T06:58:29;1.75;;;0.90;;
42518;SDS011;28147;47.520;18.920;2023-05-07T07:00:55;1.05;;;0.70;;
42518;SDS011;28147;47.520;18.920;2023-05-07T07:03:20;2.10;;;0.80;;
42518;SDS011;28147;47.520;18.920;2023-05-07T07:05:46;2.72;;;0.98;;
42518;SDS011;28147;47.520;18.920;2023-05-07T07:08:11;2.97;;;1.20;;
42518;SDS011;28147;47.520;18.920;2023-05-07T07:10:36;1.75;;;0.65;;
42518;SDS011;28147;47.520;18.920;2023-05-07T07:13:02;1.38;;;1.00;;
42518;SDS011;28147;47.520;18.920;2023-05-07T07:15:27;1.27;;;0.93;;
42518;SDS011;28147;47.520;18.920;2023-05-07T07:17:53;1.25;;;0.90;;
42518;SDS011;28147;47.520;18.920;2023-05-07T07:20:18;1.58;;;0.90;;
42518;SDS011;28147;47.520;18.920;2023-05-07T07:22:43;2.13;;;1.15;;
42518;SDS011;28147;47.520;18.920;2023-05-07T07:25:09;3.38;;;1.25;;
42518;SDS011;28147;47.520;18.920;2023-05-07T07:27:36;1.92;;;1.10;;
42518;SDS011;28147;47.520;18.920;2023-05-07T07:30:01;3.53;;;1.80;;
42518;SDS011;28147;47.520;18.920;2023-05-07T07:32:27;3.60;;;1.90;;
42518;SDS011;28147;47.520;18.920;2023-05-07T07:34:52;3.70;;;1.88;;
42518;SDS011;28147;47.520;18.920;2023-05-07T07:37:17;2.90;;;2.00;;
42518;SDS011;28147;47.520;18.920;2023-05-07T07:39:43;3.85;;;2.22;;
42518;SDS011;28147;47.520;18.920;2023-05-07T07:42:08;3.35;;;1.88;;
42518;SDS011;28147;47.520;18.920;2023-05-07T07:44:34;3.17;;;1.70;;
42518;SDS011;28147;47.520;18.920;2023-05-07T07:46:59;4.47;;;2.30;;
42518;SDS011;28147;47.520;18.920;2023-05-07T07:49:25;4.20;;;2.17;;
42518;SDS011;28147;47.520;18.920;2023-05-07T07:51:50;2.95;;;2.05;;
42518;SDS011;28147;47.520;18.920;2023-05-07T07:54:16;3.38;;;2.03;;
42518;SDS011;28147;47.520;18.920;2023-05-07T07:56:41;4.38;;;2.00;;
42518;SDS011;28147;47.520;18.920;2023-05-07T07:59:07;5.07;;;2.85;;
42518;SDS011;28147;47.520;18.920;2023-05-07T08:01:32;3.50;;;2.50;;
42518;SDS011;28147;47.520;18.920;2023-05-07T08:03:57;4.88;;;2.95;;
42518;SDS011;28147;47.520;18.920;2023-05-07T08:06:24;4.90;;;2.63;;
42518;SDS011;28147;47.520;18.920;2023-05-07T08:08:50;5.03;;;3.00;;
42518;SDS011;28147;47.520;18.920;2023-05-07T08:11:16;5.32;;;3.47;;
42518;SDS011;28147;47.520;18.920;2023-05-07T08:13:41;6.35;;;3.90;;
42518;SDS011;28147;47.520;18.920;2023-05-07T08:16:07;6.03;;;3.97;;
42518;SDS011;28147;47.520;18.920;2023-05-07T08:18:33;5.93;;;3.85;;
42518;SDS011;28147;47.520;18.920;2023-05-07T08:20:58;6.40;;;4.05;;
42518;SDS011;28147;47.520;18.920;2023-05-07T08:23:23;6.68;;;4.25;;
42518;SDS011;28147;47.520;18.920;2023-05-07T08:25:49;5.07;;;3.55;;
42518;SDS011;28147;47.520;18.920;2023-05-07T08:28:15;5.25;;;3.47;;
42518;SDS011;28147;47.520;18.920;2023-05-07T08:30:40;3.83;;;3.10;;
42518;SDS011;28147;47.520;18.920;2023-05-07T08:33:06;6.07;;;2.85;;
42518;SDS011;28147;47.520;18.920;2023-05-07T08:35:33;5.93;;;3.30;;
42518;SDS011;28147;47.520;18.920;2023-05-07T08:37:58;5.82;;;3.95;;
42518;SDS011;28147;47.520;18.920;2023-05-07T08:40:25;6.38;;;3.63;;
42518;SDS011;28147;47.520;18.920;2023-05-07T08:42:52;5.47;;;3.42;;
42518;SDS011;28147;47.520;18.920;2023-05-07T08:45:18;8.45;;;4.20;;
42518;SDS011;28147;47.520;18.920;2023-05-07T08:47:56;5.63;;;3.40;;
42518;SDS011;28147;47.520;18.920;2023-05-07T08:50:24;5.20;;;3.22;;
42518;SDS011;28147;47.520;18.920;2023-05-07T08:52:50;4.57;;;2.80;;
42518;SDS011;28147;47.520;18.920;2023-05-07T08:55:15;7.57;;;3.00;;
42518;SDS011;28147;47.520;18.920;2023-05-07T08:57:42;5.25;;;3.03;;
42518;SDS011;28147;47.520;18.920;2023-05-07T09:00:07;4.55;;;2.65;;
42518;SDS011;28147;47.520;18.920;2023-05-07T09:02:35;5.18;;;2.63;;
42518;SDS011;28147;47.520;18.920;2023-05-07T09:05:01;3.75;;;2.20;;
42518;SDS011;28147;47.520;18.920;2023-05-07T09:07:26;3.33;;;2.10;;
42518;SDS011;28147;47.520;18.920;2023-05-07T09:09:52;4.97;;;2.88;;
42518;SDS011;28147;47.520;18.920;2023-05-07T09:12:20;3.55;;;2.00;;
42518;SDS011;28147;47.520;18.920;2023-05-07T09:14:46;3.60;;;1.90;;
42518;SDS011;28147;47.520;18.920;2023-05-07T09:17:12;3.88;;;2.42;;
42518;SDS011;28147;47.520;18.920;2023-05-07T09:19:41;3.45;;;2.20;;
42518;SDS011;28147;47.520;18.920;2023-05-07T09:22:08;4.13;;;2.63;;
42518;SDS011;28147;47.520;18.920;2023-05-07T09:24:34;4.90;;;3.22;;
42518;SDS011;28147;47.520;18.920;2023-05-07T09:27:01;4.57;;;2.38;;
42518;SDS011;28147;47.520;18.920;2023-05-07T09:29:27;4.63;;;2.50;;
42518;SDS011;28147;47.520;18.920;2023-05-07T09:31:55;4.57;;;2.65;;
42518;SDS011;28147;47.520;18.920;2023-05-07T09:34:21;4.28;;;2.30;;
42518;SDS011;28147;47.520;18.920;2023-05-07T09:36:47;3.67;;;2.35;;
42518;SDS011;28147;47.520;18.920;2023-05-07T09:39:13;5.43;;;2.30;;
42518;SDS011;28147;47.520;18.920;2023-05-07T09:41:45;3.75;;;2.35;;
42518;SDS011;28147;47.520;18.920;2023-05-07T09:44:11;4.18;;;2.08;;
42518;SDS011;28147;47.520;18.920;2023-05-07T09:46:39;4.07;;;2.17;;
42518;SDS011;28147;47.520;18.920;2023-05-07T09:49:08;3.30;;;2.30;;
42518;SDS011;28147;47.520;18.920;2023-05-07T09:51:45;4.30;;;2.47;;
42518;SDS011;28147;47.520;18.920;2023-05-07T09:54:14;4.53;;;2.60;;
42518;SDS011;28147;47.520;18.920;2023-05-07T09:56:40;2.53;;;1.88;;
42518;SDS011;28147;47.520;18.920;2023-05-07T09:59:07;3.35;;;2.42;;
42518;SDS011;28147;47.520;18.920;2023-05-07T10:01:35;4.95;;;3.22;;
42518;SDS011;28147;47.520;18.920;2023-05-07T10:04:01;4.22;;;2.67;;
42518;SDS011;28147;47.520;18.920;2023-05-07T10:06:29;5.07;;;2.70;;
42518;SDS011;28147;47.520;18.920;2023-05-07T10:08:55;4.55;;;2.80;;
42518;SDS011;28147;47.520;18.920;2023-05-07T10:11:21;5.40;;;2.80;;
42518;SDS011;28147;47.520;18.920;2023-05-07T10:13:47;4.93;;;3.20;;
42518;SDS011;28147;47.520;18.920;2023-05-07T10:16:13;4.65;;;3.58;;
42518;SDS011;28147;47.520;18.920;2023-05-07T10:18:40;6.15;;;3.72;;
42518;SDS011;28147;47.520;18.920;2023-05-07T10:21:24;5.95;;;3.50;;
42518;SDS011;28147;47.520;18.920;2023-05-07T10:24:26;5.45;;;3.53;;
42518;SDS011;28147;47.520;18.920;2023-05-07T10:26:56;4.93;;;3.28;;
42518;SDS011;28147;47.520;18.920;2023-05-07T10:30:00;5.68;;;3.85;;
42518;SDS011;28147;47.520;18.920;2023-05-07T10:32:39;6.55;;;4.13;;
42518;SDS011;28147;47.520;18.920;2023-05-07T10:35:11;6.78;;;4.13;;
42518;SDS011;28147;47.520;18.920;2023-05-07T10:37:42;5.65;;;3.85;;
42518;SDS011;28147;47.520;18.920;2023-05-07T10:40:09;5.07;;;3.20;;
42518;SDS011;28147;47.520;18.920;2023-05-07T10:42:35;4.88;;;2.38;;
42518;SDS011;28147;47.520;18.920;2023-05-07T10:45:13;4.82;;;2.97;;
42518;SDS011;28147;47.520;18.920;2023-05-07T10:50:31;4.63;;;2.97;;
42518;SDS011;28147;47.520;18.920;2023-05-07T10:58:42;5.88;;;2.78;;
42518;SDS011;28147;47.520;18.920;2023-05-07T11:01:07;3.33;;;2.22;;
42518;SDS011;28147;47.520;18.920;2023-05-07T11:03:33;3.13;;;2.05;;
42518;SDS011;28147;47.520;18.920;2023-05-07T11:06:14;2.78;;;1.80;;
42518;SDS011;28147;47.520;18.920;2023-05-07T11:11:19;3.70;;;2.28;;
42518;SDS011;28147;47.520;18.920;2023-05-07T11:13:48;5.07;;;2.30;;
42518;SDS011;28147;47.520;18.920;2023-05-07T11:16:20;3.42;;;2.00;;
42518;SDS011;28147;47.520;18.920;2023-05-07T11:18:48;2.75;;;1.95;;
42518;SDS011;28147;47.520;18.920;2023-05-07T11:21:31;2.85;;;1.67;;
42518;SDS011;28147;47.520;18.920;2023-05-07T11:23:57;2.95;;;1.65;;
42518;SDS011;28147;47.520;18.920;2023-05-07T11:26:23;3.90;;;2.30;;
42518;SDS011;28147;47.520;18.920;2023-05-07T11:28:50;3.58;;;2.20;;
42518;SDS011;28147;47.520;18.920;2023-05-07T11:31:17;4.30;;;2.33;;
42518;SDS011;28147;47.520;18.920;2023-05-07T11:36:11;3.53;;;2.05;;
42518;SDS011;28147;47.520;18.920;2023-05-07T11:38:37;3.10;;;1.90;;
42518;SDS011;28147;47.520;18.920;2023-05-07T11:41:03;5.82;;;2.20;;
42518;SDS011;28147;47.520;18.920;2023-05-07T11:43:32;3.22;;;2.13;;
42518;SDS011;28147;47.520;18.920;2023-05-07T11:46:11;3.65;;;2.17;;
42518;SDS011;28147;47.520;18.920;2023-05-07T11:48:37;4.07;;;2.08;;
42518;SDS011;28147;47.520;18.920;2023-05-07T11:51:04;2.55;;;1.67;;
42518;SDS011;28147;47.520;18.920;2023-05-07T11:53:40;3.53;;;1.88;;
42518;SDS011;28147;47.520;18.920;2023-05-07T11:56:11;2.72;;;1.88;;
42518;SDS011;28147;47.520;18.920;2023-05-07T11:58:38;3.50;;;1.90;;
42518;SDS011;28147;47.520;18.920;2023-05-07T12:01:07;2.60;;;1.83;;
42518;SDS011;28147;47.520;18.920;2023-05-07T12:05:59;3.78;;;2.10;;
42518;SDS011;28147;47.520;18.920;2023-05-07T12:08:25;6.95;;;2.08;;
42518;SDS011;28147;47.520;18.920;2023-05-07T12:10:50;3.08;;;1.85;;
42518;SDS011;28147;47.520;18.920;2023-05-07T12:13:21;2.95;;;1.75;;
42518;SDS011;28147;47.520;18.920;2023-05-07T12:15:50;2.67;;;1.85;;
42518;SDS011;28147;47.520;18.920;2023-05-07T12:18:16;2.15;;;1.35;;
42518;SDS011;28147;47.520;18.920;2023-05-07T12:20:42;3.50;;;1.83;;
42518;SDS011;28147;47.520;18.920;2023-05-07T12:23:08;2.70;;;1.50;;
42518;SDS011;28147;47.520;18.920;2023-05-07T12:25:38;2.55;;;1.50;;
42518;SDS011;28147;47.520;18.920;2023-05-07T12:28:05;3.88;;;1.90;;
42518;SDS011;28147;47.520;18.920;2023-05-07T12:30:37;3.65;;;1.75;;
42518;SDS011;28147;47.520;18.920;2023-05-07T12:33:03;1.77;;;1.50;;
42518;SDS011;28147;47.520;18.920;2023-05-07T12:35:32;2.40;;;1.77;;
42518;SDS011;28147;47.520;18.920;2023-05-07T12:38:02;3.08;;;1.60;;
42518;SDS011;28147;47.520;18.920;2023-05-07T12:40:39;3.35;;;1.70;;
42518;SDS011;28147;47.520;18.920;2023-05-07T12:43:07;2.63;;;1.60;;
42518;SDS011;28147;47.520;18.920;2023-05-07T12:45:40;4.00;;;2.28;;
42518;SDS011;28147;47.520;18.920;2023-05-07T12:48:06;3.20;;;1.95;;
42518;SDS011;28147;47.520;18.920;2023-05-07T12:50:34;1.70;;;1.15;;
42518;SDS011;28147;47.520;18.920;2023-05-07T12:52:59;2.05;;;1.38;;
42518;SDS011;28147;47.520;18.920;2023-05-07T12:55:25;3.70;;;2.05;;
42518;SDS011;28147;47.520;18.920;2023-05-07T12:57:51;4.43;;;2.90;;
42518;SDS011;28147;47.520;18.920;2023-05-07T13:00:18;8.63;;;5.30;;
42518;SDS011;28147;47.520;18.920;2023-05-07T13:02:58;4.10;;;2.05;;
42518;SDS011;28147;47.520;18.920;2023-05-07T13:05:23;7.20;;;4.68;;
42518;SDS011;28147;47.520;18.920;2023-05-07T13:07:52;3.70;;;2.33;;
42518;SDS011;28147;47.520;18.920;2023-05-07T13:10:19;4.60;;;1.77;;
42518;SDS011;28147;47.520;18.920;2023-05-07T13:12:44;4.30;;;2.40;;
42518;SDS011;28147;47.520;18.920;2023-05-07T13:15:09;2.72;;;1.70;;
42518;SDS011;28147;47.520;18.920;2023-05-07T13:17:35;3.55;;;2.15;;
42518;SDS011;28147;47.520;18.920;2023-05-07T13:20:00;3.63;;;2.10;;
42518;SDS011;28147;47.520;18.920;2023-05-07T13:22:26;4.63;;;2.58;;
42518;SDS011;28147;47.520;18.920;2023-05-07T13:24:51;4.05;;;1.73;;
42518;SDS011;28147;47.520;18.920;2023-05-07T13:27:16;6.43;;;3.30;;
42518;SDS011;28147;47.520;18.920;2023-05-07T13:29:44;3.97;;;2.72;;
42518;SDS011;28147;47.520;18.920;2023-05-07T13:32:09;3.80;;;2.35;;
42518;SDS011;28147;47.520;18.920;2023-05-07T13:34:34;4.28;;;2.63;;
42518;SDS011;28147;47.520;18.920;2023-05-07T13:37:00;4.85;;;2.80;;
42518;SDS011;28147;47.520;18.920;2023-05-07T13:39:25;6.13;;;3.78;;
42518;SDS011;28147;47.520;18.920;2023-05-07T13:41:51;3.75;;;2.20;;
42518;SDS011;28147;47.520;18.920;2023-05-07T13:44:16;4.20;;;2.40;;
42518;SDS011;28147;47.520;18.920;2023-05-07T13:46:42;3.97;;;1.90;;
42518;SDS011;28147;47.520;18.920;2023-05-07T13:49:07;2.58;;;1.80;;
42518;SDS011;28147;47.520;18.920;2023-05-07T13:51:36;3.47;;;1.60;;
42518;SDS011;28147;47.520;18.920;2023-05-07T13:54:01;3.40;;;1.70;;
42518;SDS011;28147;47.520;18.920;2023-05-07T13:56:26;2.90;;;2.00;;
42518;SDS011;28147;47.520;18.920;2023-05-07T13:58:53;7.15;;;2.65;;
42518;SDS011;28147;47.520;18.920;2023-05-07T14:01:18;3.47;;;1.73;;
42518;SDS011;28147;47.520;18.920;2023-05-07T14:03:44;3.05;;;1.83;;
42518;SDS011;28147;47.520;18.920;2023-05-07T14:06:10;3.45;;;2.15;;
42518;SDS011;28147;47.520;18.920;2023-05-07T14:08:35;3.35;;;1.90;;
42518;SDS011;28147;47.520;18.920;2023-05-07T14:11:00;3.47;;;1.65;;
42518;SDS011;28147;47.520;18.920;2023-05-07T14:13:26;2.42;;;1.52;;
42518;SDS011;28147;47.520;18.920;2023-05-07T14:15:52;3.28;;;1.70;;
42518;SDS011;28147;47.520;18.920;2023-05-07T14:18:17;2.90;;;1.80;;
42518;SDS011;28147;47.520;18.920;2023-05-07T14:20:43;2.63;;;1.50;;
42518;SDS011;28147;47.520;18.920;2023-05-07T14:23:08;3.28;;;1.80;;
42518;SDS011;28147;47.520;18.920;2023-05-07T14:25:34;3.05;;;1.83;;
42518;SDS011;28147;47.520;18.920;2023-05-07T14:28:00;3.53;;;1.83;;
42518;SDS011;28147;47.520;18.920;2023-05-07T14:30:25;3.60;;;2.00;;
42518;SDS011;28147;47.520;18.920;2023-05-07T14:32:50;4.32;;;2.17;;
42518;SDS011;28147;47.520;18.920;2023-05-07T14:35:16;3.00;;;1.75;;
42518;SDS011;28147;47.520;18.920;2023-05-07T14:37:42;3.47;;;2.00;;
42518;SDS011;28147;47.520;18.920;2023-05-07T14:40:08;2.90;;;1.80;;
42518;SDS011;28147;47.520;18.920;2023-05-07T14:42:34;3.50;;;2.38;;
42518;SDS011;28147;47.520;18.920;2023-05-07T14:44:59;4.80;;;2.47;;
42518;SDS011;28147;47.520;18.920;2023-05-07T14:47:25;3.35;;;2.50;;